Time;durP1;ratioP1;P1;durP2;ratioP2;P2;SDS_P1;SDS_P2;PMS_P1;PMS_P2;Temp;Humidity;BMP_temperature;BMP_pressure;BME280_temperature;BME280_humidity;BME280_pressure;Samples;Min_cycle;Max_cycle;Signal;HPM_P1;HPM_P2
2023/05/15 00:00:13;;;;;;;9.57;8.57;;;12.10;99.90;;;;;;5116158;28;20027;-72
2023/05/15 00:02:38;;;;;;;8.98;8.07;;;12.10;99.90;;;;;;5116874;28;20024;-71
2023/05/15 00:05:08;;;;;;;9.90;8.90;;;12.10;99.90;;;;;;5116353;28;20430;-72
2023/05/15 00:07:34;;;;;;;9.30;8.40;;;12.10;99.90;;;;;;5116531;28;20467;-71
2023/05/15 00:10:00;;;;;;;9.48;8.48;;;12.10;99.90;;;;;;5116002;28;20403;-72
2023/05/15 00:12:26;;;;;;;9.18;8.27;;;12.10;99.90;;;;;;5116589;28;20065;-71
2023/05/15 00:14:52;;;;;;;9.35;8.38;;;12.10;99.90;;;;;;5116367;28;20034;-71
2023/05/15 00:17:17;;;;;;;8.60;7.80;;;12.10;99.90;;;;;;5116197;28;20069;-71
2023/05/15 00:19:43;;;;;;;9.70;8.55;;;12.10;99.90;;;;;;5116644;28;20035;-71
2023/05/15 00:22:09;;;;;;;9.15;8.25;;;12.10;99.90;;;;;;5116065;28;20458;-72
2023/05/15 00:24:34;;;;;;;8.68;7.85;;;12.10;99.90;;;;;;5116439;28;20076;-70
2023/05/15 00:27:01;;;;;;;8.90;7.78;;;12.10;99.90;;;;;;5116316;28;20388;-70
2023/05/15 00:29:27;;;;;;;8.95;7.63;;;12.10;99.90;;;;;;5115975;28;20058;-70
2023/05/15 00:31:52;;;;;;;7.50;6.80;;;12.10;99.90;;;;;;5116467;28;20511;-70
2023/05/15 00:34:18;;;;;;;8.38;7.20;;;12.10;99.90;;;;;;5115773;28;20027;-70
2023/05/15 00:36:44;;;;;;;8.15;6.50;;;12.10;99.90;;;;;;5115798;28;20102;-70
2023/05/15 00:39:10;;;;;;;9.40;7.07;;;12.10;99.90;;;;;;5115631;28;20091;-70
2023/05/15 00:41:36;;;;;;;8.05;6.85;;;12.10;99.90;;;;;;5116060;28;20066;-70
2023/05/15 00:44:02;;;;;;;7.97;7.13;;;12.10;99.90;;;;;;5115534;28;20115;-75
2023/05/15 00:46:30;;;;;;;7.53;6.82;;;12.10;99.90;;;;;;5115708;28;20043;-71
2023/05/15 00:48:56;;;;;;;8.40;7.50;;;12.10;99.90;;;;;;5115607;28;20028;-70
2023/05/15 00:51:22;;;;;;;8.45;7.65;;;12.10;99.90;;;;;;5115448;28;20063;-70
2023/05/15 00:53:51;;;;;;;10.55;8.35;;;12.10;99.90;;;;;;5116269;28;20136;-71
2023/05/15 00:56:16;;;;;;;9.85;8.40;;;12.10;99.90;;;;;;5115716;28;20402;-71
2023/05/15 00:58:47;;;;;;;10.52;9.15;;;12.10;99.90;;;;;;5115881;28;20032;-70
2023/05/15 01:01:15;;;;;;;10.30;9.27;;;12.10;99.90;;;;;;5115272;28;20031;-71
2023/05/15 01:03:41;;;;;;;10.52;8.82;;;12.10;99.90;;;;;;5114662;28;20043;-71
2023/05/15 01:06:07;;;;;;;11.32;10.10;;;12.10;99.90;;;;;;5114948;28;20102;-70
2023/05/15 01:08:55;;;;;;;10.35;9.35;;;12.10;99.90;;;;;;5115593;28;20111;-70
2023/05/15 01:11:23;;;;;;;10.45;9.25;;;12.10;99.90;;;;;;5114848;28;20107;-70
2023/05/15 01:13:49;;;;;;;11.40;10.20;;;12.10;99.90;;;;;;5115444;28;20055;-70
2023/05/15 01:16:14;;;;;;;11.43;10.23;;;12.10;99.90;;;;;;5114647;28;20116;-71
2023/05/15 01:18:40;;;;;;;10.85;9.75;;;12.10;99.90;;;;;;5114772;28;20451;-72
2023/05/15 01:21:33;;;;;;;11.05;9.35;;;12.10;99.90;;;;;;5114929;28;20030;-72
2023/05/15 01:24:27;;;;;;;9.52;8.57;;;12.10;99.90;;;;;;5114960;28;20476;-73
2023/05/15 01:27:16;;;;;;;8.63;7.68;;;12.10;99.90;;;;;;5115195;28;20023;-71
2023/05/15 01:30:00;;;;;;;7.70;6.90;;;12.10;99.90;;;;;;5115268;28;20418;-71
2023/05/15 01:32:45;;;;;;;8.48;6.72;;;12.10;99.90;;;;;;5114676;28;20032;-72
2023/05/15 01:35:30;;;;;;;7.15;6.45;;;12.10;99.90;;;;;;5114690;28;20028;-71
2023/05/15 01:38:22;;;;;;;7.13;6.43;;;12.10;99.90;;;;;;5115034;28;20530;-72
2023/05/15 01:41:00;;;;;;;6.70;5.80;;;12.10;99.90;;;;;;5113711;28;20028;-71
2023/05/15 01:43:29;;;;;;;7.45;6.63;;;12.10;99.90;;;;;;5113213;28;20050;-72
2023/05/15 01:45:56;;;;;;;7.65;6.80;;;12.10;99.90;;;;;;5114275;28;20484;-71
2023/05/15 01:48:23;;;;;;;6.45;5.85;;;12.10;99.90;;;;;;5112990;28;20469;-71
2023/05/15 01:50:53;;;;;;;6.88;6.18;;;12.00;99.90;;;;;;5114491;28;20031;-71
2023/05/15 01:53:19;;;;;;;8.57;7.68;;;12.10;99.90;;;;;;5114226;28;20035;-72
2023/05/15 01:55:47;;;;;;;9.63;7.68;;;12.00;99.90;;;;;;5114622;28;20052;-71
2023/05/15 01:58:14;;;;;;;8.55;7.10;;;12.00;99.90;;;;;;5114188;28;20035;-72
2023/05/15 02:00:41;;;;;;;9.20;7.47;;;12.00;99.90;;;;;;5114556;28;20111;-71
2023/05/15 02:03:07;;;;;;;8.30;6.65;;;11.90;99.90;;;;;;5114493;28;20118;-71
2023/05/15 02:05:34;;;;;;;7.72;6.93;;;11.90;99.90;;;;;;5114133;28;20380;-72
2023/05/15 02:08:02;;;;;;;11.13;7.13;;;11.90;99.90;;;;;;5114218;28;20097;-71
2023/05/15 02:10:29;;;;;;;8.88;7.63;;;11.90;99.90;;;;;;5113985;28;20271;-72
2023/05/15 02:12:55;;;;;;;9.77;7.50;;;11.90;99.90;;;;;;5114184;28;20020;-71
2023/05/15 02:15:22;;;;;;;11.27;7.35;;;11.90;99.90;;;;;;5113667;28;20341;-71
2023/05/15 02:17:47;;;;;;;7.80;6.43;;;11.80;99.90;;;;;;5114172;28;20411;-71
2023/05/15 02:20:13;;;;;;;7.65;6.18;;;11.80;99.90;;;;;;5112454;28;20038;-71
2023/05/15 02:22:39;;;;;;;7.25;5.95;;;11.80;99.90;;;;;;5114338;28;20106;-71
2023/05/15 02:25:05;;;;;;;7.90;6.07;;;11.80;99.90;;;;;;5114012;28;20368;-71
2023/05/15 02:27:49;;;;;;;7.00;5.85;;;11.70;99.90;;;;;;5113198;28;20116;-71
2023/05/15 02:30:28;;;;;;;6.78;5.88;;;11.70;99.90;;;;;;5113544;28;20089;-72
2023/05/15 02:33:16;;;;;;;11.63;6.30;;;11.70;99.90;;;;;;5113885;27;20034;-71
2023/05/15 02:35:57;;;;;;;8.10;6.20;;;11.70;99.90;;;;;;5105032;28;20140;-70
2023/05/15 02:38:28;;;;;;;8.30;6.03;;;11.70;99.90;;;;;;5113517;28;20121;-70
2023/05/15 02:40:55;;;;;;;6.95;6.20;;;11.70;99.90;;;;;;5113880;27;20024;-71
2023/05/15 02:43:22;;;;;;;9.27;6.03;;;11.70;99.90;;;;;;5113566;28;20031;-71
2023/05/15 02:45:48;;;;;;;7.88;6.35;;;11.70;99.90;;;;;;5113515;28;20054;-70
2023/05/15 02:48:15;;;;;;;9.05;6.40;;;11.70;99.90;;;;;;5113205;28;20048;-70
2023/05/15 02:50:41;;;;;;;9.63;7.03;;;11.80;99.90;;;;;;5113576;28;20094;-70
2023/05/15 02:53:08;;;;;;;8.75;6.95;;;11.70;99.90;;;;;;5113666;28;20519;-70
2023/05/15 02:55:34;;;;;;;7.85;6.30;;;11.70;99.90;;;;;;5113143;28;20084;-70
2023/05/15 02:58:01;;;;;;;8.68;6.75;;;11.70;99.90;;;;;;5113459;28;20031;-70
2023/05/15 03:00:26;;;;;;;7.65;6.85;;;11.70;99.90;;;;;;5113058;28;20032;-70
2023/05/15 03:02:52;;;;;;;7.90;7.00;;;11.70;99.90;;;;;;5113380;28;20098;-71
2023/05/15 03:05:18;;;;;;;8.55;7.35;;;11.80;99.90;;;;;;5112682;28;20023;-72
2023/05/15 03:07:43;;;;;;;9.23;6.85;;;11.80;99.90;;;;;;5113345;28;20028;-69
2023/05/15 03:10:09;;;;;;;7.68;6.75;;;11.80;99.90;;;;;;5113412;28;20023;-70
2023/05/15 03:12:35;;;;;;;9.23;6.53;;;11.70;99.90;;;;;;5112894;28;20468;-71
2023/05/15 03:15:01;;;;;;;8.15;6.75;;;11.70;99.90;;;;;;5113248;28;20478;-72
2023/05/15 03:17:26;;;;;;;9.80;6.60;;;11.70;99.90;;;;;;5112190;28;20028;-71
2023/05/15 03:19:52;;;;;;;8.25;7.40;;;11.70;99.90;;;;;;5112903;28;20129;-71
2023/05/15 03:22:18;;;;;;;8.48;6.88;;;11.70;99.90;;;;;;5112783;28;20020;-72
2023/05/15 03:24:45;;;;;;;9.20;6.50;;;11.70;99.90;;;;;;5113293;28;20460;-71
2023/05/15 03:27:10;;;;;;;6.65;5.95;;;11.70;99.90;;;;;;5113648;28;20110;-71
2023/05/15 03:29:37;;;;;;;7.07;6.32;;;11.70;99.90;;;;;;5116967;28;20119;-71
2023/05/15 03:32:02;;;;;;;7.43;5.82;;;11.70;99.90;;;;;;5117284;28;20383;-71
2023/05/15 03:34:28;;;;;;;7.15;5.50;;;11.70;99.90;;;;;;5116897;28;20106;-72
2023/05/15 03:36:54;;;;;;;8.90;5.85;;;11.60;99.90;;;;;;5117279;28;20093;-71
2023/05/15 03:39:19;;;;;;;6.75;5.72;;;11.60;99.90;;;;;;5116785;28;20024;-72
2023/05/15 03:41:45;;;;;;;7.55;5.72;;;11.60;99.90;;;;;;5115963;28;20081;-71
2023/05/15 03:44:11;;;;;;;5.78;4.80;;;11.60;99.90;;;;;;5116646;28;20020;-71
2023/05/15 03:46:36;;;;;;;5.82;4.88;;;11.60;99.90;;;;;;5116750;28;20384;-70
2023/05/15 03:49:02;;;;;;;4.93;4.50;;;11.60;99.90;;;;;;5117057;28;20110;-71
2023/05/15 03:51:28;;;;;;;4.55;4.15;;;11.60;99.90;;;;;;5116513;28;20044;-71
2023/05/15 03:53:53;;;;;;;4.03;3.63;;;11.60;99.90;;;;;;5116672;28;20032;-71
2023/05/15 03:56:20;;;;;;;5.78;4.15;;;11.60;99.90;;;;;;5116472;28;20023;-72
2023/05/15 03:58:45;;;;;;;5.43;4.18;;;11.50;99.90;;;;;;5116854;28;20023;-71
2023/05/15 04:01:11;;;;;;;4.38;3.85;;;11.60;99.90;;;;;;5116869;28;20103;-71
2023/05/15 04:03:36;;;;;;;4.57;3.95;;;11.60;99.90;;;;;;5116369;28;20024;-72
2023/05/15 04:06:02;;;;;;;6.03;4.35;;;11.60;99.90;;;;;;5116433;28;20417;-72
2023/05/15 04:08:28;;;;;;;4.68;3.72;;;11.60;99.90;;;;;;5116265;28;20036;-72
2023/05/15 04:10:53;;;;;;;5.25;4.15;;;11.60;99.90;;;;;;5116571;28;20034;-71
2023/05/15 04:13:19;;;;;;;6.07;3.55;;;11.60;99.90;;;;;;5116253;28;20395;-72
2023/05/15 04:15:45;;;;;;;5.40;3.00;;;11.60;99.90;;;;;;5116508;28;20024;-72
2023/05/15 04:18:11;;;;;;;3.03;2.72;;;11.70;99.90;;;;;;5116461;28;20444;-72
2023/05/15 04:20:36;;;;;;;2.60;2.35;;;11.70;99.90;;;;;;5116091;28;20043;-71
2023/05/15 04:23:04;;;;;;;3.33;2.58;;;11.80;99.90;;;;;;5116753;28;20046;-72
2023/05/15 04:25:30;;;;;;;2.53;2.33;;;11.80;99.90;;;;;;5115910;28;20088;-72
2023/05/15 04:27:56;;;;;;;2.88;2.40;;;11.80;99.90;;;;;;5116354;28;20110;-71
2023/05/15 04:30:21;;;;;;;3.03;2.50;;;11.80;99.90;;;;;;5115661;28;20480;-72
2023/05/15 04:32:47;;;;;;;3.97;2.50;;;11.80;99.90;;;;;;5116410;28;20019;-72
2023/05/15 04:35:14;;;;;;;2.70;1.52;;;11.80;99.90;;;;;;5116023;28;20052;-71
2023/05/15 04:37:40;;;;;;;2.25;1.30;;;11.80;99.90;;;;;;5115639;28;20036;-71
2023/05/15 04:40:07;;;;;;;1.40;1.10;;;11.80;99.90;;;;;;5115966;28;20020;-71
2023/05/15 04:42:34;;;;;;;0.73;0.68;;;11.80;99.90;;;;;;5115613;28;20478;-71
2023/05/15 04:45:01;;;;;;;0.60;0.60;;;11.70;99.90;;;;;;5115720;28;20051;-70
2023/05/15 04:47:26;;;;;;;0.80;0.60;;;11.70;99.90;;;;;;5115423;28;20028;-70
2023/05/15 04:49:52;;;;;;;1.13;0.70;;;11.60;99.90;;;;;;5116120;28;20089;-70
2023/05/15 04:52:18;;;;;;;1.40;0.60;;;11.60;99.90;;;;;;5114546;28;20031;-70
2023/05/15 04:54:43;;;;;;;1.90;0.70;;;11.60;99.90;;;;;;5115311;28;20031;-70
2023/05/15 04:57:09;;;;;;;1.27;0.70;;;11.60;99.90;;;;;;5114703;28;20027;-70
2023/05/15 04:59:35;;;;;;;1.10;0.80;;;11.60;99.90;;;;;;5115300;28;20028;-71
2023/05/15 05:02:01;;;;;;;1.50;1.02;;;11.60;99.90;;;;;;5115568;28;20064;-70
2023/05/15 05:04:27;;;;;;;3.78;0.70;;;11.60;99.90;;;;;;5115425;28;20493;-71
2023/05/15 05:06:53;;;;;;;1.35;0.60;;;11.60;99.90;;;;;;5115488;28;20032;-71
2023/05/15 05:09:19;;;;;;;0.70;0.70;;;11.50;99.90;;;;;;5115475;28;20080;-71
2023/05/15 05:11:45;;;;;;;0.90;0.63;;;11.50;99.90;;;;;;5115006;28;20027;-70
2023/05/15 05:14:11;;;;;;;1.55;0.77;;;11.50;99.90;;;;;;5114971;28;20080;-70
2023/05/15 05:16:37;;;;;;;1.55;1.10;;;11.50;99.90;;;;;;5114916;28;20031;-70
2023/05/15 05:19:03;;;;;;;1.33;0.77;;;11.60;99.90;;;;;;5115217;28;20027;-70
2023/05/15 05:21:29;;;;;;;1.48;0.90;;;11.60;99.90;;;;;;5114432;28;20457;-71
2023/05/15 05:23:55;;;;;;;1.92;1.00;;;11.80;99.90;;;;;;5115459;27;20047;-70
2023/05/15 05:26:21;;;;;;;2.35;1.05;;;12.10;99.90;;;;;;5114996;28;20464;-70
2023/05/15 05:28:47;;;;;;;4.72;1.00;;;12.30;99.90;;;;;;5114922;28;20379;-70
2023/05/15 05:31:13;;;;;;;2.58;1.20;;;12.60;99.90;;;;;;5114786;28;20392;-71
2023/05/15 05:33:39;;;;;;;1.65;0.98;;;12.70;99.90;;;;;;5114571;28;20015;-70
2023/05/15 05:36:05;;;;;;;1.35;0.80;;;12.70;99.90;;;;;;5114008;28;20028;-70
2023/05/15 05:38:31;;;;;;;1.77;1.08;;;12.50;99.90;;;;;;5114514;28;20454;-69
2023/05/15 05:40:57;;;;;;;0.93;0.80;;;12.50;99.90;;;;;;5114914;28;20078;-70
2023/05/15 05:43:25;;;;;;;2.20;0.88;;;12.90;99.90;;;;;;5114752;28;20020;-72
2023/05/15 05:45:50;;;;;;;1.77;0.80;;;13.50;99.90;;;;;;5114591;28;20039;-71
2023/05/15 05:48:16;;;;;;;0.60;0.60;;;14.00;99.90;;;;;;5114575;28;20077;-71
2023/05/15 05:50:42;;;;;;;0.70;0.63;;;13.90;99.90;;;;;;5113474;28;20106;-71
2023/05/15 05:53:07;;;;;;;1.58;0.70;;;14.50;99.90;;;;;;5114351;28;20413;-70
2023/05/15 05:55:33;;;;;;;0.70;0.65;;;15.30;99.90;;;;;;5113641;28;20121;-70
2023/05/15 05:57:59;;;;;;;1.95;0.80;;;15.20;99.90;;;;;;5114152;28;20032;-71
2023/05/15 06:00:24;;;;;;;0.90;0.60;;;14.90;99.90;;;;;;5114235;28;20023;-76
2023/05/15 06:02:59;;;;;;;2.92;0.57;;;14.90;99.90;;;;;;5113060;28;20027;-70
2023/05/15 06:05:26;;;;;;;2.63;0.60;;;14.70;99.90;;;;;;5114284;28;20023;-76
2023/05/15 06:07:52;;;;;;;2.30;0.65;;;14.40;99.90;;;;;;5114489;28;20121;-70
2023/05/15 06:10:18;;;;;;;1.98;0.68;;;14.10;99.90;;;;;;5114161;28;20160;-70
2023/05/15 06:12:44;;;;;;;1.13;0.50;;;14.00;99.90;;;;;;5113587;28;20023;-71
2023/05/15 06:15:10;;;;;;;1.77;0.63;;;14.70;99.90;;;;;;5113826;28;20034;-70
2023/05/15 06:17:37;;;;;;;3.00;0.40;;;14.90;99.90;;;;;;5113734;28;20426;-72
2023/05/15 06:20:08;;;;;;;1.30;0.60;;;14.80;99.90;;;;;;5114035;28;20057;-71
2023/05/15 06:22:35;;;;;;;1.60;0.65;;;14.60;99.90;;;;;;5113491;28;20034;-70
2023/05/15 06:25:04;;;;;;;1.33;0.50;;;14.40;99.90;;;;;;5113589;28;20028;-71
2023/05/15 06:27:30;;;;;;;3.67;0.70;;;14.20;99.90;;;;;;5113480;28;20023;-72
2023/05/15 06:29:55;;;;;;;2.05;0.90;;;14.00;99.90;;;;;;5113835;28;20027;-71
2023/05/15 06:32:21;;;;;;;1.55;0.63;;;13.80;99.90;;;;;;5113566;28;20424;-71
2023/05/15 06:34:47;;;;;;;0.68;0.50;;;13.60;99.90;;;;;;5113103;28;20353;-71
2023/05/15 06:37:12;;;;;;;2.47;0.50;;;13.50;99.90;;;;;;5113425;28;20027;-72
2023/05/15 06:39:38;;;;;;;0.50;0.50;;;13.20;99.90;;;;;;5113267;28;20027;-71
2023/05/15 06:42:04;;;;;;;1.10;0.60;;;13.00;99.90;;;;;;5112480;28;20096;-71
2023/05/15 06:44:30;;;;;;;1.17;0.68;;;12.90;99.90;;;;;;5113130;28;20059;-72
2023/05/15 06:46:56;;;;;;;0.70;0.50;;;12.90;99.90;;;;;;5113413;28;20513;-70
2023/05/15 06:49:23;;;;;;;1.13;0.60;;;12.80;99.90;;;;;;5113104;28;20031;-71
2023/05/15 06:51:49;;;;;;;1.67;0.70;;;12.80;99.90;;;;;;5111783;28;20388;-71
2023/05/15 06:54:15;;;;;;;0.52;0.50;;;12.80;99.90;;;;;;5113153;28;20061;-70
2023/05/15 06:56:40;;;;;;;0.50;0.40;;;12.80;99.90;;;;;;5112674;28;20388;-71
2023/05/15 06:59:06;;;;;;;2.05;0.82;;;12.70;99.90;;;;;;5113342;28;20106;-70
2023/05/15 07:01:31;;;;;;;0.40;0.40;;;12.70;99.90;;;;;;5112186;28;20028;-72
2023/05/15 07:03:57;;;;;;;2.30;0.70;;;12.70;99.90;;;;;;5111694;28;20028;-71
2023/05/15 07:06:24;;;;;;;1.67;0.55;;;12.70;99.90;;;;;;5113315;28;20023;-70
2023/05/15 07:08:50;;;;;;;1.30;0.50;;;12.70;99.90;;;;;;5112418;28;20112;-71
2023/05/15 07:11:16;;;;;;;0.68;0.47;;;12.70;99.90;;;;;;5112563;28;20063;-72
2023/05/15 07:13:41;;;;;;;0.63;0.60;;;12.70;99.90;;;;;;5113081;28;20432;-71
2023/05/15 07:16:07;;;;;;;2.05;0.70;;;12.80;99.90;;;;;;5113463;28;20024;-69
2023/05/15 07:18:33;;;;;;;1.23;0.45;;;12.80;99.90;;;;;;5112680;28;20475;-71
2023/05/15 07:20:58;;;;;;;2.08;0.50;;;12.90;99.90;;;;;;5113048;28;20023;-71
2023/05/15 07:23:24;;;;;;;0.70;0.60;;;12.80;99.90;;;;;;5113074;28;20066;-71
2023/05/15 07:25:52;;;;;;;1.20;0.63;;;12.90;99.90;;;;;;5112085;28;20035;-72
2023/05/15 07:28:18;;;;;;;1.40;1.00;;;12.90;99.90;;;;;;5112964;28;20453;-72
2023/05/15 07:30:43;;;;;;;1.08;0.95;;;12.90;99.90;;;;;;5111416;28;20039;-72
2023/05/15 07:33:09;;;;;;;1.33;0.82;;;12.90;99.90;;;;;;5112883;28;20361;-70
2023/05/15 07:35:35;;;;;;;1.55;0.80;;;12.90;99.90;;;;;;5112548;28;20345;-72
2023/05/15 07:38:01;;;;;;;1.08;0.60;;;13.00;99.90;;;;;;5112999;28;20028;-71
2023/05/15 07:40:26;;;;;;;1.10;0.70;;;13.20;99.90;;;;;;5112923;28;20027;-71
2023/05/15 07:42:52;;;;;;;1.75;0.82;;;13.40;99.90;;;;;;5112658;28;20036;-71
2023/05/15 07:45:18;;;;;;;1.75;0.75;;;13.60;99.90;;;;;;5111142;28;20139;-71
2023/05/15 07:47:47;;;;;;;1.33;0.70;;;13.80;99.90;;;;;;5112375;28;20456;-70
2023/05/15 07:50:14;;;;;;;1.13;0.90;;;13.80;99.90;;;;;;5112860;28;20023;-70
2023/05/15 07:52:40;;;;;;;0.90;0.70;;;13.80;99.90;;;;;;5112562;28;20519;-72
2023/05/15 07:55:07;;;;;;;7.55;1.10;;;13.80;99.90;;;;;;5112862;28;20422;-70
2023/05/15 07:57:33;;;;;;;1.63;0.90;;;13.90;99.90;;;;;;5112907;28;20069;-71
2023/05/15 07:59:58;;;;;;;2.92;1.20;;;13.90;99.90;;;;;;5112523;28;20024;-72
2023/05/15 08:02:24;;;;;;;1.55;1.02;;;13.80;99.90;;;;;;5112805;28;20024;-71
2023/05/15 08:04:49;;;;;;;1.42;0.85;;;13.90;99.90;;;;;;5112299;28;20024;-71
2023/05/15 08:07:15;;;;;;;1.15;0.80;;;13.80;99.90;;;;;;5112540;28;20106;-72
2023/05/15 08:09:41;;;;;;;1.15;0.85;;;13.70;99.90;;;;;;5110961;28;20035;-72
2023/05/15 08:12:20;;;;;;;1.92;0.85;;;13.80;99.90;;;;;;5112758;28;20372;-71
2023/05/15 08:14:50;;;;;;;2.70;0.90;;;13.80;99.90;;;;;;5115325;28;20029;-71
2023/05/15 08:17:16;;;;;;;1.55;0.90;;;13.90;99.90;;;;;;5116534;28;20077;-71
2023/05/15 08:19:43;;;;;;;3.38;0.80;;;14.10;99.90;;;;;;5115913;28;20455;-72
2023/05/15 08:22:08;;;;;;;3.65;0.88;;;14.20;99.90;;;;;;5116271;27;20027;-72
2023/05/15 08:24:34;;;;;;;0.93;0.70;;;14.20;99.90;;;;;;5116001;28;20024;-71
2023/05/15 08:27:00;;;;;;;0.75;0.75;;;14.20;99.90;;;;;;5115845;28;20460;-71
2023/05/15 08:29:26;;;;;;;1.98;0.60;;;14.20;99.90;;;;;;5116359;28;20600;-71
2023/05/15 08:31:51;;;;;;;2.08;0.70;;;14.20;99.90;;;;;;5115816;28;20061;-72
2023/05/15 08:34:17;;;;;;;1.70;1.00;;;14.50;99.90;;;;;;5115867;28;20051;-72
2023/05/15 08:36:43;;;;;;;1.20;0.88;;;14.70;99.90;;;;;;5115824;28;20032;-71
2023/05/15 08:39:09;;;;;;;2.13;0.70;;;15.00;99.90;;;;;;5116204;28;20032;-71
2023/05/15 08:42:03;;;;;;;3.30;0.60;;;15.00;99.90;;;;;;5116280;28;20020;-71
2023/05/15 08:44:29;;;;;;;1.85;0.80;;;15.10;99.90;;;;;;5113839;28;20040;-71
2023/05/15 08:46:57;;;;;;;0.90;0.50;;;15.10;99.90;;;;;;5115345;28;20042;-71
2023/05/15 08:49:28;;;;;;;1.85;0.90;;;15.00;99.90;;;;;;5115794;28;20036;-71
2023/05/15 08:51:54;;;;;;;0.70;0.68;;;15.20;99.90;;;;;;5115382;28;20028;-71
2023/05/15 08:54:21;;;;;;;2.63;0.63;;;15.30;99.90;;;;;;5115440;27;20456;-71
2023/05/15 08:56:46;;;;;;;0.68;0.60;;;15.40;99.90;;;;;;5115263;28;20099;-72
2023/05/15 08:59:12;;;;;;;3.05;0.80;;;15.50;99.90;;;;;;5115301;27;20055;-71
2023/05/15 09:01:38;;;;;;;1.25;1.00;;;15.50;99.90;;;;;;5115263;28;20070;-77
2023/05/15 09:04:04;;;;;;;0.88;0.60;;;15.60;99.70;;;;;;5115450;28;20409;-72
2023/05/15 09:06:31;;;;;;;0.70;0.65;;;15.40;98.10;;;;;;5115201;28;20484;-71
2023/05/15 09:08:59;;;;;;;0.75;0.60;;;15.40;97.40;;;;;;5114416;28;20106;-71
2023/05/15 09:11:27;;;;;;;1.27;0.65;;;15.30;98.40;;;;;;5115304;28;20031;-70
2023/05/15 09:13:59;;;;;;;1.02;0.77;;;15.20;99.20;;;;;;5114894;28;20023;-70
2023/05/15 09:16:25;;;;;;;0.60;0.60;;;15.10;98.90;;;;;;5114959;28;20524;-70
2023/05/15 09:18:51;;;;;;;1.98;0.70;;;15.00;99.60;;;;;;5114821;28;20047;-70
2023/05/15 09:21:25;;;;;;;1.50;0.85;;;15.00;99.60;;;;;;5114934;28;20085;-71
2023/05/15 09:23:52;;;;;;;1.17;0.80;;;15.00;99.90;;;;;;5114289;28;20361;-70
2023/05/15 09:26:18;;;;;;;1.75;0.80;;;15.00;99.90;;;;;;5113927;28;20100;-71
2023/05/15 09:28:43;;;;;;;1.40;0.70;;;15.20;99.90;;;;;;5114352;28;20055;-70
2023/05/15 09:31:10;;;;;;;0.93;0.88;;;15.30;99.90;;;;;;5114825;28;20069;-72
2023/05/15 09:33:38;;;;;;;0.70;0.63;;;15.50;99.90;;;;;;5115025;28;20446;-72
2023/05/15 09:36:05;;;;;;;0.90;0.65;;;15.60;99.80;;;;;;5114572;28;20051;-72
2023/05/15 09:38:38;;;;;;;1.70;1.00;;;15.70;99.90;;;;;;5114524;28;20448;-72
2023/05/15 09:41:05;;;;;;;0.90;0.70;;;15.70;98.60;;;;;;5114477;28;20042;-71
2023/05/15 09:43:36;;;;;;;2.15;0.75;;;15.70;97.50;;;;;;5114854;28;20471;-70
2023/05/15 09:46:03;;;;;;;4.20;0.65;;;15.70;96.60;;;;;;5114129;28;20556;-71
2023/05/15 09:48:29;;;;;;;2.42;0.80;;;15.80;95.60;;;;;;5113998;28;20514;-71
2023/05/15 09:50:56;;;;;;;0.80;0.60;;;15.90;95.20;;;;;;5113851;28;20035;-72
2023/05/15 09:53:22;;;;;;;0.70;0.60;;;15.80;95.30;;;;;;5114612;28;20027;-71
2023/05/15 09:55:48;;;;;;;1.02;0.52;;;15.70;94.70;;;;;;5114243;28;20072;-72
2023/05/15 09:58:16;;;;;;;3.90;0.60;;;15.80;94.20;;;;;;5114563;28;20035;-71
2023/05/15 10:00:43;;;;;;;2.25;0.70;;;15.90;94.10;;;;;;5113993;28;20036;-79
2023/05/15 10:03:10;;;;;;;7.53;0.60;;;15.90;94.10;;;;;;5114602;28;20066;-71
2023/05/15 10:05:36;;;;;;;0.68;0.60;;;16.10;94.40;;;;;;5114029;28;20035;-72
2023/05/15 10:08:02;;;;;;;0.50;0.50;;;16.20;93.90;;;;;;5113425;28;20035;-71
2023/05/15 10:10:28;;;;;;;2.42;0.80;;;16.40;93.80;;;;;;5114250;28;20380;-71
2023/05/15 10:13:02;;;;;;;2.75;0.80;;;16.40;92.80;;;;;;5114056;28;20028;-72
2023/05/15 10:15:28;;;;;;;1.15;0.90;;;16.50;93.30;;;;;;5114037;28;20476;-71
2023/05/15 10:17:54;;;;;;;1.17;0.70;;;16.60;92.40;;;;;;5113616;28;20534;-72
2023/05/15 10:20:22;;;;;;;0.60;0.55;;;16.60;92.80;;;;;;5114096;28;20057;-70
2023/05/15 10:22:50;;;;;;;4.25;0.80;;;16.70;92.00;;;;;;5113608;28;20020;-71
2023/05/15 10:25:16;;;;;;;0.50;0.50;;;16.60;90.80;;;;;;5114001;28;20031;-71
2023/05/15 10:27:42;;;;;;;1.98;0.60;;;16.50;90.10;;;;;;5113632;28;20024;-71
2023/05/15 10:30:10;;;;;;;1.45;0.80;;;16.40;89.80;;;;;;5112017;28;20081;-71
2023/05/15 10:32:38;;;;;;;1.90;0.77;;;16.30;90.90;;;;;;5112480;28;20020;-71
2023/05/15 10:35:04;;;;;;;1.15;0.77;;;16.30;91.40;;;;;;5113249;28;20543;-72
2023/05/15 10:37:30;;;;;;;0.93;0.68;;;16.40;92.10;;;;;;5113499;28;20026;-71
2023/05/15 10:39:57;;;;;;;0.50;0.50;;;16.50;92.20;;;;;;5112880;28;20019;-71
2023/05/15 10:42:25;;;;;;;0.60;0.50;;;16.50;90.80;;;;;;5113899;28;20031;-71
2023/05/15 10:44:52;;;;;;;0.77;0.70;;;16.60;90.80;;;;;;5112942;28;20075;-72
2023/05/15 10:47:19;;;;;;;1.00;0.70;;;16.60;91.00;;;;;;5113637;28;20032;-71
2023/05/15 10:49:44;;;;;;;0.70;0.60;;;16.50;90.50;;;;;;5113154;28;20429;-69
2023/05/15 10:52:10;;;;;;;1.85;0.80;;;16.50;91.00;;;;;;5113129;27;20115;-71
2023/05/15 10:54:36;;;;;;;2.80;0.90;;;16.40;91.00;;;;;;5113373;28;20023;-71
2023/05/15 10:57:01;;;;;;;2.70;0.80;;;16.30;91.20;;;;;;5112992;28;20036;-71
2023/05/15 10:59:31;;;;;;;0.60;0.60;;;16.20;91.90;;;;;;5113633;28;20189;-71
2023/05/15 11:02:22;;;;;;;2.10;0.50;;;16.20;91.20;;;;;;5112907;28;20024;-71
2023/05/15 11:04:57;;;;;;;0.90;0.88;;;16.10;91.50;;;;;;5112980;28;20477;-72
2023/05/15 11:07:24;;;;;;;1.17;0.63;;;16.30;93.00;;;;;;5113359;28;20113;-71
2023/05/15 11:09:51;;;;;;;1.38;1.00;;;16.50;92.00;;;;;;5112722;28;20042;-71
2023/05/15 11:12:16;;;;;;;1.15;0.85;;;16.60;91.20;;;;;;5113086;28;20036;-71
2023/05/15 11:15:03;;;;;;;1.23;0.75;;;16.70;91.90;;;;;;5113101;28;20084;-71
2023/05/15 11:17:31;;;;;;;1.02;0.70;;;16.80;91.70;;;;;;5112610;28;20042;-71
2023/05/15 11:19:58;;;;;;;1.92;0.90;;;16.90;90.10;;;;;;5112635;28;20028;-71
2023/05/15 11:22:34;;;;;;;0.80;0.70;;;16.90;88.90;;;;;;5112912;28;20453;-72
2023/05/15 11:25:05;;;;;;;1.98;0.60;;;16.80;88.00;;;;;;5112673;28;20027;-72
2023/05/15 11:27:43;;;;;;;2.20;1.00;;;16.70;87.20;;;;;;5113207;28;20028;-70
2023/05/15 11:30:36;;;;;;;1.95;0.75;;;16.70;87.10;;;;;;5112719;28;20136;-70
2023/05/15 11:33:10;;;;;;;3.05;0.90;;;16.80;86.80;;;;;;5112642;28;20032;-70
2023/05/15 11:35:42;;;;;;;0.70;0.70;;;16.70;86.20;;;;;;5112951;28;20034;-70
2023/05/15 11:38:24;;;;;;;1.30;0.70;;;16.70;86.50;;;;;;5112639;28;20031;-70
2023/05/15 11:40:57;;;;;;;0.75;0.70;;;16.60;86.60;;;;;;5112547;28;20084;-74
2023/05/15 11:43:27;;;;;;;0.60;0.60;;;16.70;86.30;;;;;;5113017;28;20035;-71
2023/05/15 11:45:57;;;;;;;0.98;0.80;;;16.70;86.00;;;;;;5112512;28;20069;-71
2023/05/15 11:48:46;;;;;;;1.65;0.82;;;16.80;86.20;;;;;;5113704;28;20067;-70
2023/05/15 11:51:22;;;;;;;0.85;0.85;;;16.80;84.90;;;;;;5116630;28;20070;-70
2023/05/15 11:53:52;;;;;;;0.68;0.60;;;16.90;85.40;;;;;;5116614;28;20345;-70
2023/05/15 11:56:26;;;;;;;1.08;0.80;;;16.90;85.60;;;;;;5116927;28;20020;-70
2023/05/15 11:58:55;;;;;;;8.23;1.13;;;16.90;85.60;;;;;;5115999;28;20397;-72
2023/05/15 12:01:21;;;;;;;0.95;0.60;;;16.90;83.50;;;;;;5116587;28;20413;-71
2023/05/15 12:03:48;;;;;;;1.15;0.82;;;16.90;82.90;;;;;;5116685;28;20032;-71
2023/05/15 12:06:14;;;;;;;2.75;1.33;;;16.90;83.60;;;;;;5116091;28;20024;-70
2023/05/15 12:08:41;;;;;;;1.63;0.63;;;17.00;84.70;;;;;;5116228;27;20027;-71
2023/05/15 12:11:06;;;;;;;2.75;0.60;;;17.00;85.50;;;;;;5115836;28;20472;-71
2023/05/15 12:13:33;;;;;;;2.55;0.98;;;17.10;84.80;;;;;;5116194;28;20031;-71
2023/05/15 12:16:00;;;;;;;1.75;0.80;;;17.20;84.20;;;;;;5115884;28;20083;-71
2023/05/15 12:18:26;;;;;;;1.17;0.90;;;17.30;83.50;;;;;;5116676;28;20024;-70
2023/05/15 12:20:53;;;;;;;4.05;0.80;;;17.40;82.40;;;;;;5116604;28;20031;-70
2023/05/15 12:23:21;;;;;;;1.08;0.70;;;17.40;81.90;;;;;;5116476;28;20035;-71
2023/05/15 12:25:49;;;;;;;0.98;0.50;;;17.30;80.10;;;;;;5116243;28;20028;-71
2023/05/15 12:28:16;;;;;;;0.68;0.50;;;17.30;81.10;;;;;;5115715;28;20069;-72
2023/05/15 12:30:42;;;;;;;0.82;0.77;;;17.40;81.80;;;;;;5115820;28;20030;-72
2023/05/15 12:33:09;;;;;;;0.73;0.40;;;17.50;82.60;;;;;;5115717;28;20072;-72
2023/05/15 12:35:39;;;;;;;1.33;0.70;;;17.50;81.40;;;;;;5116037;28;20384;-72
2023/05/15 12:38:06;;;;;;;1.77;0.60;;;17.50;81.90;;;;;;5115766;28;20051;-72
2023/05/15 12:40:35;;;;;;;1.05;0.60;;;17.60;82.20;;;;;;5115826;28;20099;-72
2023/05/15 12:43:06;;;;;;;1.10;0.65;;;17.60;79.60;;;;;;5115513;28;20023;-70
2023/05/15 12:45:33;;;;;;;1.00;0.60;;;17.60;81.70;;;;;;5116081;28;20043;-70
2023/05/15 12:48:00;;;;;;;1.55;0.60;;;17.60;82.20;;;;;;5115556;28;20027;-71